Time;durP1;ratioP1;P1;durP2;ratioP2;P2;SDS_P1;SDS_P2;PMS_P1;PMS_P2;Temp;Humidity;BMP_temperature;BMP_pressure;BME280_temperature;BME280_humidity;BME280_pressure;Samples;Min_cycle;Max_cycle;Signal;HPM_P1;HPM_P2
2022/10/30 00:00:46;;;;;;;25.15;5.40;;;11.20;99.90;;;;;;5089660;28;20476;-68
2022/10/30 00:03:14;;;;;;;15.45;4.88;;;11.20;99.90;;;;;;5076053;28;20059;-64
2022/10/30 00:05:47;;;;;;;21.30;4.68;;;11.20;99.90;;;;;;5082857;28;20147;-71
2022/10/30 00:08:16;;;;;;;17.20;4.00;;;11.20;99.90;;;;;;5081922;28;20044;-65
2022/10/30 00:10:43;;;;;;;13.95;3.35;;;11.20;99.90;;;;;;5080956;28;20048;-67
2022/10/30 00:13:11;;;;;;;11.90;4.55;;;11.20;99.90;;;;;;5082120;28;20050;-65
2022/10/30 00:15:38;;;;;;;15.82;4.10;;;11.20;99.90;;;;;;5079160;28;20067;-66
2022/10/30 00:18:05;;;;;;;16.00;3.78;;;11.20;99.90;;;;;;5084610;28;24510;-71
2022/10/30 00:20:35;;;;;;;14.65;3.90;;;11.20;99.90;;;;;;5083539;28;20074;-69
2022/10/30 00:23:02;;;;;;;16.63;5.68;;;11.20;99.90;;;;;;5088017;28;20214;-66
2022/10/30 00:25:29;;;;;;;16.17;4.95;;;11.20;99.90;;;;;;5080009;28;20054;-68
2022/10/30 00:27:56;;;;;;;12.27;3.67;;;11.20;99.90;;;;;;5080774;28;20059;-65
2022/10/30 00:30:22;;;;;;;12.63;2.78;;;11.20;99.90;;;;;;5081750;28;20052;-65
2022/10/30 00:32:49;;;;;;;13.30;2.90;;;11.20;99.90;;;;;;5086168;28;20139;-67
2022/10/30 00:35:16;;;;;;;15.15;3.20;;;11.20;99.90;;;;;;5081433;28;20416;-65
2022/10/30 00:37:43;;;;;;;19.20;4.82;;;11.20;99.90;;;;;;5058538;28;20444;-67
2022/10/30 00:40:18;;;;;;;15.93;3.38;;;11.20;99.90;;;;;;5075200;28;20510;-65
2022/10/30 00:42:45;;;;;;;21.90;4.30;;;11.10;99.90;;;;;;5082720;28;20062;-66
2022/10/30 00:45:14;;;;;;;13.45;4.28;;;11.10;99.90;;;;;;5080687;28;20493;-69
2022/10/30 00:47:58;;;;;;;7.70;3.42;;;11.10;99.90;;;;;;5083782;28;20048;-64
2022/10/30 00:50:30;;;;;;;17.08;4.00;;;11.10;99.90;;;;;;5081506;28;20044;-67
2022/10/30 00:53:01;;;;;;;17.08;4.10;;;11.10;99.90;;;;;;5083949;28;20047;-70
2022/10/30 00:55:38;;;;;;;11.25;4.70;;;11.10;99.90;;;;;;5086399;28;20571;-64
2022/10/30 00:58:09;;;;;;;16.30;4.00;;;11.10;99.90;;;;;;5082573;28;20105;-67
2022/10/30 01:00:39;;;;;;;17.25;3.33;;;11.10;99.90;;;;;;5065519;28;20083;-68
2022/10/30 01:03:06;;;;;;;10.57;3.35;;;11.10;99.90;;;;;;5078523;28;20064;-68
2022/10/30 01:05:35;;;;;;;13.38;2.83;;;11.10;99.90;;;;;;5069869;28;20047;-64
2022/10/30 01:08:02;;;;;;;14.70;4.55;;;11.10;99.90;;;;;;5063083;28;20058;-65
2022/10/30 01:10:29;;;;;;;14.88;6.93;;;11.10;99.90;;;;;;5079868;28;20044;-64
2022/10/30 01:12:58;;;;;;;14.00;4.00;;;11.10;99.90;;;;;;5065033;28;20075;-66
2022/10/30 01:15:36;;;;;;;13.80;5.22;;;11.10;99.90;;;;;;5087224;28;20127;-69
2022/10/30 01:18:33;;;;;;;18.00;5.40;;;11.10;99.90;;;;;;5056193;28;20044;-64
2022/10/30 01:21:08;;;;;;;28.55;5.10;;;11.00;99.90;;;;;;5062076;28;20044;-64
2022/10/30 01:23:54;;;;;;;14.43;3.15;;;11.00;99.90;;;;;;5084580;28;20075;-69
2022/10/30 01:26:27;;;;;;;15.43;4.65;;;11.10;99.90;;;;;;5064461;28;20120;-64
2022/10/30 01:29:13;;;;;;;11.63;3.97;;;11.00;99.90;;;;;;5067071;28;20054;-66
2022/10/30 01:32:32;;;;;;;17.48;4.45;;;11.10;99.90;;;;;;5080642;28;20512;-68
2022/10/30 01:35:17;;;;;;;12.07;3.93;;;11.10;99.90;;;;;;5055421;28;20043;-66
2022/10/30 01:38:00;;;;;;;11.43;3.15;;;11.00;99.90;;;;;;5082248;28;20079;-65
2022/10/30 01:40:27;;;;;;;15.20;4.57;;;11.00;99.90;;;;;;5054598;28;20064;-67
2022/10/30 01:42:57;;;;;;;25.77;3.50;;;10.90;99.90;;;;;;5068145;28;20044;-65
2022/10/30 01:45:38;;;;;;;17.95;5.68;;;11.00;99.90;;;;;;5083214;28;20047;-68
2022/10/30 01:48:39;;;;;;;17.77;4.45;;;10.90;99.90;;;;;;5065242;28;20464;-65
2022/10/30 01:51:34;;;;;;;28.10;5.43;;;10.90;99.90;;;;;;5074318;28;20506;-67
2022/10/30 01:54:07;;;;;;;15.77;4.35;;;10.90;99.90;;;;;;5076517;28;20056;-76
2022/10/30 01:56:57;;;;;;;17.65;5.47;;;10.90;99.90;;;;;;5065663;28;20460;-66
2022/10/30 01:59:36;;;;;;;13.98;4.03;;;10.90;99.90;;;;;;5064658;28;20555;-68
2022/10/30 02:02:05;;;;;;;18.83;4.68;;;10.90;99.90;;;;;;5058038;28;20040;-64
2022/10/30 02:04:33;;;;;;;14.93;5.18;;;10.90;99.90;;;;;;5059748;28;20066;-71
2022/10/30 02:07:00;;;;;;;22.48;4.05;;;10.90;99.90;;;;;;5082790;28;20048;-64
2022/10/30 02:09:27;;;;;;;19.73;4.80;;;10.90;99.90;;;;;;5059841;28;20047;-67
2022/10/30 02:11:54;;;;;;;17.05;3.67;;;10.90;99.90;;;;;;5067370;28;20127;-69
2022/10/30 02:14:33;;;;;;;17.17;5.55;;;10.90;99.90;;;;;;5068285;28;20415;-67
2022/10/30 02:17:04;;;;;;;13.88;3.58;;;10.90;99.90;;;;;;5061352;28;20404;-64
2022/10/30 02:19:31;;;;;;;13.25;3.00;;;10.90;99.90;;;;;;5064096;28;20129;-65
2022/10/30 02:22:01;;;;;;;16.52;3.88;;;10.90;99.90;;;;;;5062916;28;20105;-66
2022/10/30 02:24:30;;;;;;;14.48;4.13;;;10.90;99.90;;;;;;5062211;28;20044;-69
2022/10/30 02:26:58;;;;;;;13.75;3.35;;;10.90;99.90;;;;;;5080676;28;20117;-68
2022/10/30 02:29:25;;;;;;;22.65;5.60;;;10.90;99.90;;;;;;5059859;28;20135;-64
2022/10/30 02:31:52;;;;;;;20.75;5.72;;;10.90;99.90;;;;;;5074933;28;20043;-70
2022/10/30 02:34:19;;;;;;;13.98;3.50;;;10.90;99.90;;;;;;5080058;28;20054;-65
2022/10/30 02:36:46;;;;;;;15.10;5.03;;;10.90;99.90;;;;;;5079156;28;20139;-67
2022/10/30 02:39:13;;;;;;;17.38;4.05;;;10.90;99.90;;;;;;5084589;28;20095;-74
2022/10/30 02:41:40;;;;;;;20.38;3.47;;;10.90;99.90;;;;;;5083231;28;20063;-65
2022/10/30 02:44:07;;;;;;;16.92;4.78;;;10.90;99.90;;;;;;5070944;28;20063;-69
2022/10/30 02:46:34;;;;;;;21.02;5.95;;;10.90;99.90;;;;;;5059242;28;20470;-69
2022/10/30 02:49:01;;;;;;;14.38;5.25;;;10.80;99.90;;;;;;5064847;28;20052;-65
2022/10/30 02:51:31;;;;;;;17.85;4.88;;;10.90;99.90;;;;;;5068123;28;20069;-68
2022/10/30 02:54:00;;;;;;;30.30;5.35;;;10.90;99.90;;;;;;5063848;28;20142;-73
2022/10/30 02:56:29;;;;;;;14.93;4.53;;;10.90;99.90;;;;;;5076288;28;20097;-66
2022/10/30 02:58:55;;;;;;;16.90;4.78;;;10.90;99.90;;;;;;5073592;28;20124;-65
2022/10/30 03:01:22;;;;;;;19.73;5.00;;;10.90;99.90;;;;;;5064765;28;20162;-68
2022/10/30 03:03:53;;;;;;;10.98;4.20;;;10.90;99.90;;;;;;5057066;28;20075;-65
2022/10/30 03:06:22;;;;;;;16.77;5.93;;;10.90;99.90;;;;;;5063026;28;20109;-68
2022/10/30 03:08:49;;;;;;;18.30;4.25;;;10.90;99.90;;;;;;5065097;28;20076;-68
2022/10/30 03:11:19;;;;;;;14.10;4.78;;;10.90;99.90;;;;;;5052666;28;20062;-67
2022/10/30 03:13:46;;;;;;;12.70;4.85;;;10.90;99.90;;;;;;5078956;28;20450;-66
2022/10/30 03:16:16;;;;;;;23.15;5.80;;;10.90;99.90;;;;;;5061391;28;20453;-64
2022/10/30 03:18:44;;;;;;;17.70;4.45;;;10.90;99.90;;;;;;5085224;28;20135;-65
2022/10/30 03:21:14;;;;;;;21.67;5.85;;;10.90;99.90;;;;;;5066104;28;20048;-76
2022/10/30 03:23:43;;;;;;;18.17;4.88;;;10.90;99.90;;;;;;5062465;28;20047;-69
2022/10/30 03:26:10;;;;;;;15.02;3.75;;;10.90;99.90;;;;;;5074316;28;20063;-65
2022/10/30 03:29:00;;;;;;;18.38;6.22;;;10.90;99.90;;;;;;5076922;28;20064;-65
2022/10/30 03:31:29;;;;;;;28.92;5.78;;;11.00;99.90;;;;;;5063627;28;20401;-65
2022/10/30 03:34:31;;;;;;;10.63;5.10;;;10.90;99.90;;;;;;5058613;28;20048;-66
2022/10/30 03:37:03;;;;;;;10.27;4.40;;;11.00;99.90;;;;;;5056204;28;20448;-67
2022/10/30 03:39:30;;;;;;;13.70;3.78;;;10.90;99.90;;;;;;5060872;28;20241;-65
2022/10/30 03:41:57;;;;;;;12.57;4.38;;;10.90;99.90;;;;;;5079854;28;20414;-66
2022/10/30 03:44:24;;;;;;;11.00;4.38;;;10.90;99.90;;;;;;5059270;28;20055;-74
2022/10/30 03:46:51;;;;;;;14.30;3.92;;;10.90;99.90;;;;;;5083611;28;20491;-66
2022/10/30 03:49:26;;;;;;;16.88;3.10;;;10.90;99.90;;;;;;5066692;28;20051;-69
2022/10/30 03:51:54;;;;;;;11.02;5.10;;;10.90;99.90;;;;;;5059995;28;20398;-67
2022/10/30 03:54:22;;;;;;;16.48;5.97;;;10.90;99.90;;;;;;5078417;28;20062;-65
2022/10/30 03:56:49;;;;;;;14.63;3.53;;;10.80;99.90;;;;;;5063236;28;20567;-69
2022/10/30 03:59:16;;;;;;;13.70;4.00;;;10.80;99.90;;;;;;5061275;28;20060;-64
2022/10/30 04:01:57;;;;;;;;;;;10.80;99.90;;;;;;5067107;28;20064;-65
2022/10/30 04:04:24;;;;;;;16.17;4.85;;;10.80;99.90;;;;;;5066106;28;20460;-73
2022/10/30 04:06:51;;;;;;;18.15;3.63;;;10.70;99.90;;;;;;5059964;28;20048;-66
2022/10/30 04:09:18;;;;;;;15.13;5.30;;;10.70;99.90;;;;;;5073973;28;20047;-66
2022/10/30 04:11:45;;;;;;;15.57;4.35;;;10.70;99.90;;;;;;5062049;28;20536;-77
2022/10/30 04:14:11;;;;;;;10.65;3.45;;;10.70;99.90;;;;;;5082358;28;20055;-66
2022/10/30 04:16:38;;;;;;;13.45;4.15;;;10.70;99.90;;;;;;5063270;28;20444;-67
2022/10/30 04:19:06;;;;;;;15.13;4.43;;;10.60;99.90;;;;;;5064679;28;20070;-70
2022/10/30 04:21:33;;;;;;;16.88;3.65;;;10.60;99.90;;;;;;5079191;28;20047;-65
2022/10/30 04:24:00;;;;;;;14.88;3.35;;;10.60;99.90;;;;;;5064922;28;20044;-73
2022/10/30 04:26:30;;;;;;;19.95;5.43;;;10.60;99.90;;;;;;5061871;28;20506;-68
2022/10/30 04:28:57;;;;;;;17.15;3.67;;;10.60;99.90;;;;;;5078732;28;20067;-66
2022/10/30 04:31:24;;;;;;;16.15;4.32;;;10.60;99.90;;;;;;5068526;28;20548;-65
2022/10/30 04:33:51;;;;;;;18.67;4.72;;;10.60;99.90;;;;;;5060537;28;20075;-70
2022/10/30 04:36:20;;;;;;;10.18;4.10;;;10.60;99.90;;;;;;5069780;28;20055;-68
2022/10/30 04:38:48;;;;;;;17.20;2.80;;;10.60;99.90;;;;;;5070340;28;20134;-67
2022/10/30 04:41:15;;;;;;;15.60;4.68;;;10.60;99.90;;;;;;5065642;28;20050;-77
2022/10/30 04:43:51;;;;;;;18.90;4.63;;;10.60;99.90;;;;;;5067265;28;20181;-65
2022/10/30 04:46:18;;;;;;;15.52;4.18;;;10.60;99.90;;;;;;5082611;28;20087;-68
2022/10/30 04:48:45;;;;;;;11.20;4.38;;;10.70;99.90;;;;;;5082440;28;20072;-65
2022/10/30 04:51:13;;;;;;;14.05;5.65;;;10.70;99.90;;;;;;5066540;28;20051;-68
2022/10/30 04:53:41;;;;;;;14.40;4.35;;;10.60;99.90;;;;;;5080333;28;20135;-68
2022/10/30 04:56:11;;;;;;;11.38;4.30;;;10.60;99.90;;;;;;5075328;28;20098;-65
2022/10/30 04:58:38;;;;;;;13.30;5.38;;;10.70;99.90;;;;;;5064146;28;20055;-68
2022/10/30 05:01:07;;;;;;;13.93;4.13;;;10.70;99.90;;;;;;5069576;28;20052;-66
2022/10/30 05:03:35;;;;;;;11.60;4.20;;;10.60;99.90;;;;;;5067001;28;20151;-65
2022/10/30 05:06:22;;;;;;;9.43;3.88;;;10.60;99.90;;;;;;5065883;28;20044;-71
2022/10/30 05:08:49;;;;;;;10.60;3.85;;;10.70;99.90;;;;;;5085237;28;20109;-68
2022/10/30 05:11:37;;;;;;;11.82;4.00;;;10.60;99.90;;;;;;5082165;28;20147;-65
2022/10/30 05:14:04;;;;;;;13.38;3.50;;;10.70;99.90;;;;;;5084646;28;20135;-65
2022/10/30 05:16:30;;;;;;;11.73;5.15;;;10.60;99.90;;;;;;5078068;28;20040;-64
2022/10/30 05:18:59;;;;;;;15.80;4.57;;;10.60;99.90;;;;;;5054560;28;20159;-70
2022/10/30 05:21:27;;;;;;;12.45;3.75;;;10.70;99.90;;;;;;5081614;28;20430;-68
2022/10/30 05:23:54;;;;;;;14.23;4.50;;;10.70;99.90;;;;;;5081959;28;20427;-68
2022/10/30 05:26:22;;;;;;;15.05;3.80;;;10.70;99.90;;;;;;5073948;28;20481;-76
2022/10/30 05:28:50;;;;;;;10.70;2.45;;;10.60;99.90;;;;;;5068231;28;20124;-68
2022/10/30 05:31:18;;;;;;;17.40;3.97;;;10.60;99.90;;;;;;5080007;28;20139;-66
2022/10/30 05:34:05;;;;;;;15.25;3.95;;;10.70;99.90;;;;;;5082629;28;20121;-64
2022/10/30 05:36:35;;;;;;;;;;;10.60;99.90;;;;;;5068489;28;20100;-65
2022/10/30 05:39:03;;;;;;;10.13;3.85;;;10.60;99.90;;;;;;5065273;28;20328;-68
2022/10/30 05:41:42;;;;;;;8.15;3.83;;;10.60;99.90;;;;;;5065552;28;20056;-66
2022/10/30 05:44:09;;;;;;;9.98;3.53;;;10.60;99.90;;;;;;5058873;28;20109;-64
2022/10/30 05:46:39;;;;;;;11.60;3.13;;;10.60;99.90;;;;;;5066207;28;20138;-64
2022/10/30 05:49:18;;;;;;;13.18;4.13;;;10.50;99.90;;;;;;5077572;28;20300;-67
2022/10/30 05:51:46;;;;;;;9.70;3.38;;;10.50;99.90;;;;;;5080959;28;20045;-66
2022/10/30 05:54:13;;;;;;;9.77;3.90;;;10.50;99.90;;;;;;5062770;28;20074;-67
2022/10/30 05:56:53;;;;;;;9.52;4.28;;;10.50;99.90;;;;;;5060384;28;20422;-75
2022/10/30 05:59:20;;;;;;;10.25;3.22;;;10.50;99.90;;;;;;5082573;28;20059;-69
2022/10/30 06:01:47;;;;;;;11.25;2.80;;;10.50;99.90;;;;;;5067464;28;20067;-65
2022/10/30 06:04:14;;;;;;;10.02;4.35;;;10.50;99.90;;;;;;5059173;28;20148;-73
2022/10/30 06:06:41;;;;;;;11.98;4.78;;;10.50;99.90;;;;;;5082258;28;20052;-65
2022/10/30 06:09:08;;;;;;;12.93;3.65;;;10.50;99.90;;;;;;5059479;28;20105;-68
2022/10/30 06:12:14;;;;;;;15.73;2.92;;;10.50;99.90;;;;;;5011032;28;20053;-64
2022/10/30 06:14:59;;;;;;;10.18;3.58;;;10.50;99.90;;;;;;5012799;28;20135;-65
2022/10/30 06:17:30;;;;;;;6.93;3.08;;;10.50;99.90;;;;;;5047189;28;20048;-65
2022/10/30 06:20:12;;;;;;;14.82;3.65;;;10.50;99.90;;;;;;5060118;28;20117;-65
2022/10/30 06:23:12;;;;;;;10.90;3.83;;;10.50;99.90;;;;;;5081566;28;20052;-72
2022/10/30 06:25:54;;;;;;;10.38;3.33;;;10.50;99.90;;;;;;5059679;28;20068;-77
2022/10/30 06:28:25;;;;;;;8.95;2.58;;;10.50;99.90;;;;;;5084796;28;20093;-68
2022/10/30 06:30:54;;;;;;;11.38;3.85;;;10.40;99.90;;;;;;5085467;28;20475;-67
2022/10/30 06:33:21;;;;;;;14.50;3.15;;;10.40;99.90;;;;;;5078109;28;20044;-70
2022/10/30 06:35:50;;;;;;;9.70;3.20;;;10.40;99.90;;;;;;5077276;28;20125;-77
2022/10/30 06:38:18;;;;;;;13.05;3.55;;;10.40;99.90;;;;;;5057412;28;20052;-68
2022/10/30 06:40:47;;;;;;;12.52;3.70;;;10.40;99.90;;;;;;5064269;28;20101;-66
2022/10/30 06:43:29;;;;;;;10.80;3.33;;;10.30;99.90;;;;;;5072419;28;20143;-68
2022/10/30 06:46:06;;;;;;;9.40;3.50;;;10.30;99.90;;;;;;5061584;28;20055;-64
2022/10/30 06:48:40;;;;;;;14.00;4.00;;;10.30;99.90;;;;;;5050697;28;20040;-67
2022/10/30 06:51:07;;;;;;;7.88;3.38;;;10.30;99.90;;;;;;5085805;28;20563;-66
2022/10/30 06:53:37;;;;;;;11.98;2.72;;;10.30;99.90;;;;;;5066157;28;20135;-73
2022/10/30 06:56:23;;;;;;;15.18;3.88;;;10.30;99.90;;;;;;5080267;28;20050;-64
2022/10/30 06:59:13;;;;;;;13.38;3.50;;;10.30;99.90;;;;;;5059102;28;20049;-64
2022/10/30 07:01:45;;;;;;;16.63;4.20;;;10.20;99.90;;;;;;5061241;28;20155;-64
2022/10/30 07:04:22;;;;;;;18.58;4.68;;;10.20;99.90;;;;;;5063691;28;20051;-70
2022/10/30 07:06:49;;;;;;;8.65;3.17;;;10.20;99.90;;;;;;5049789;28;20044;-68
2022/10/30 07:09:18;;;;;;;15.30;4.70;;;10.20;99.90;;;;;;5064495;28;20155;-64
2022/10/30 07:11:45;;;;;;;12.63;3.67;;;10.20;99.90;;;;;;5058290;28;20048;-66
2022/10/30 07:14:23;;;;;;;11.48;3.00;;;10.20;99.90;;;;;;5063832;28;20051;-69
2022/10/30 07:16:59;;;;;;;9.93;2.78;;;10.20;99.90;;;;;;5066298;28;20117;-65
2022/10/30 07:19:27;;;;;;;11.82;3.67;;;10.20;99.90;;;;;;5059630;28;20501;-67
2022/10/30 07:21:55;;;;;;;10.13;3.78;;;10.10;99.90;;;;;;5064936;28;20060;-65
2022/10/30 07:24:22;;;;;;;13.18;2.53;;;10.10;99.90;;;;;;5060328;28;20052;-68
2022/10/30 07:27:04;;;;;;;7.47;2.80;;;10.20;99.90;;;;;;5064434;28;20097;-64
2022/10/30 07:29:43;;;;;;;7.10;3.95;;;10.20;99.90;;;;;;5062028;28;20147;-68
2022/10/30 07:32:21;;;;;;;9.35;2.75;;;10.20;99.90;;;;;;5071589;28;20086;-65
2022/10/30 07:35:10;;;;;;;15.25;4.85;;;10.20;99.90;;;;;;5071627;28;20097;-67
2022/10/30 07:38:13;;;;;;;9.80;2.33;;;10.10;99.90;;;;;;4998976;28;20385;-64
2022/10/30 07:40:53;;;;;;;14.13;3.15;;;10.20;99.90;;;;;;5049502;28;20115;-70
2022/10/30 07:43:42;;;;;;;9.35;2.35;;;10.20;99.90;;;;;;5062376;28;20517;-65
2022/10/30 07:46:27;;;;;;;9.80;3.38;;;10.20;99.90;;;;;;5075743;28;20197;-64
2022/10/30 07:49:20;;;;;;;16.67;3.65;;;10.20;99.90;;;;;;5084629;28;20261;-71
2022/10/30 07:51:48;;;;;;;16.10;2.75;;;10.20;99.90;;;;;;5061804;28;20059;-67
2022/10/30 07:54:16;;;;;;;12.85;3.25;;;10.20;99.90;;;;;;5064842;28;20078;-64
2022/10/30 07:56:43;;;;;;;13.60;3.33;;;10.20;99.90;;;;;;5066142;28;20052;-69
2022/10/30 07:59:36;;;;;;;14.25;4.93;;;10.20;99.90;;;;;;5055675;28;20446;-67
2022/10/30 08:02:29;;;;;;;5.30;2.67;;;10.20;99.90;;;;;;5046841;28;20040;-64
2022/10/30 08:05:15;;;;;;;5.75;2.80;;;10.20;99.90;;;;;;5086364;28;20130;-66
2022/10/30 08:08:00;;;;;;;8.10;2.60;;;10.30;99.90;;;;;;5078950;28;20177;-69
2022/10/30 08:10:28;;;;;;;13.65;4.38;;;10.30;99.90;;;;;;5070205;28;20051;-65
2022/10/30 08:12:56;;;;;;;10.80;3.10;;;10.30;99.90;;;;;;5067690;28;20063;-73
2022/10/30 08:15:23;;;;;;;8.30;3.70;;;10.30;99.90;;;;;;5061496;28;20052;-71
2022/10/30 08:17:51;;;;;;;8.50;3.95;;;10.30;99.90;;;;;;5079981;28;20044;-68
2022/10/30 08:20:21;;;;;;;15.07;3.55;;;10.30;99.90;;;;;;5066039;28;20054;-64
2022/10/30 08:22:54;;;;;;;5.90;1.92;;;10.30;99.90;;;;;;5080167;28;20485;-67
2022/10/30 08:25:27;;;;;;;13.55;3.13;;;10.30;99.90;;;;;;5083185;28;20055;-69
2022/10/30 08:27:57;;;;;;;5.70;2.13;;;10.20;99.90;;;;;;5084625;28;20044;-66
2022/10/30 08:30:29;;;;;;;5.45;1.95;;;10.30;99.90;;;;;;5065061;28;20757;-67
2022/10/30 08:32:58;;;;;;;6.60;2.55;;;10.30;99.90;;;;;;5057157;28;20176;-66
2022/10/30 08:35:50;;;;;;;6.38;2.67;;;10.30;99.90;;;;;;5030941;28;20486;-66
2022/10/30 08:38:18;;;;;;;6.80;2.28;;;10.40;99.90;;;;;;5069766;28;20087;-64
2022/10/30 08:40:52;;;;;;;4.20;1.85;;;10.40;99.90;;;;;;5068150;28;20056;-73
2022/10/30 08:43:19;;;;;;;9.70;2.35;;;10.40;99.90;;;;;;5084544;28;20482;-65
2022/10/30 08:45:47;;;;;;;4.70;2.47;;;10.50;99.90;;;;;;5063977;28;20054;-65
2022/10/30 08:48:18;;;;;;;4.10;2.00;;;10.50;99.90;;;;;;5085502;28;20127;-65
2022/10/30 08:50:45;;;;;;;8.70;2.28;;;10.50;99.90;;;;;;5067911;28;20068;-65
2022/10/30 08:53:17;;;;;;;4.10;1.27;;;10.50;99.90;;;;;;5065633;28;20630;-65
2022/10/30 08:55:44;;;;;;;2.03;1.05;;;10.50;99.90;;;;;;5064473;28;20048;-65
2022/10/30 08:58:22;;;;;;;2.53;0.68;;;10.50;99.90;;;;;;5078577;28;20048;-66
2022/10/30 09:00:49;;;;;;;3.58;1.20;;;10.50;99.90;;;;;;5065047;28;20075;-71
2022/10/30 09:03:16;;;;;;;13.02;1.05;;;10.50;99.90;;;;;;5080680;28;20075;-67
2022/10/30 09:06:02;;;;;;;7.45;1.52;;;10.60;99.90;;;;;;5077702;28;20517;-67
2022/10/30 09:08:58;;;;;;;3.08;0.82;;;10.60;99.90;;;;;;5065175;28;20473;-64
2022/10/30 09:11:39;;;;;;;2.78;1.38;;;10.60;99.90;;;;;;5081513;28;20562;-64
2022/10/30 09:14:07;;;;;;;4.47;0.98;;;10.70;99.90;;;;;;5061517;28;20114;-67
2022/10/30 09:16:33;;;;;;;3.80;1.15;;;10.70;99.90;;;;;;5071445;28;20063;-68
2022/10/30 09:19:01;;;;;;;8.70;1.35;;;10.70;99.90;;;;;;5064726;28;20071;-64
2022/10/30 09:21:28;;;;;;;4.47;0.82;;;10.70;99.90;;;;;;5060661;28;20044;-66
2022/10/30 09:23:55;;;;;;;4.45;1.38;;;10.70;99.90;;;;;;5065661;28;20040;-65
2022/10/30 09:26:51;;;;;;;3.13;0.70;;;10.70;99.90;;;;;;5041855;28;20053;-70
2022/10/30 09:29:25;;;;;;;1.88;0.63;;;10.70;99.90;;;;;;5062159;28;20102;-64
2022/10/30 09:31:58;;;;;;;4.45;1.30;;;10.70;99.90;;;;;;5081361;28;20410;-69
2022/10/30 09:34:29;;;;;;;3.50;0.95;;;10.70;99.90;;;;;;5064408;28;20134;-72
2022/10/30 09:37:03;;;;;;;3.10;0.80;;;10.80;99.90;;;;;;5069263;28;20055;-67
2022/10/30 09:39:34;;;;;;;2.90;0.95;;;10.80;99.90;;;;;;5067787;28;20138;-67
2022/10/30 09:42:21;;;;;;;1.48;0.47;;;10.70;99.90;;;;;;5055483;28;20663;-69
2022/10/30 09:45:27;;;;;;;1.85;0.88;;;10.70;99.90;;;;;;5068007;28;20044;-69
2022/10/30 09:48:00;;;;;;;3.55;1.10;;;10.80;99.90;;;;;;5064469;28;20048;-69
2022/10/30 09:51:23;;;;;;;3.50;0.95;;;10.80;99.90;;;;;;5078896;28;20434;-64
2022/10/30 09:54:01;;;;;;;4.97;1.27;;;10.80;99.90;;;;;;5064131;28;20055;-65
2022/10/30 09:56:41;;;;;;;2.15;0.55;;;10.80;99.90;;;;;;5080464;28;20048;-72
2022/10/30 09:59:14;;;;;;;3.92;2.35;;;10.80;99.90;;;;;;5060280;28;20048;-69
2022/10/30 10:01:58;;;;;;;1.45;0.80;;;10.80;99.90;;;;;;5085021;28;20489;-65
2022/10/30 10:04:26;;;;;;;2.63;0.75;;;10.80;99.90;;;;;;5064976;28;20056;-66
2022/10/30 10:07:37;;;;;;;1.60;0.50;;;10.70;99.90;;;;;;5077106;28;20059;-68
2022/10/30 10:10:41;;;;;;;3.85;1.45;;;10.80;99.90;;;;;;5074450;28;20413;-64
2022/10/30 10:13:32;;;;;;;4.70;0.90;;;10.80;99.90;;;;;;5058987;28;20066;-64
2022/10/30 10:16:19;;;;;;;4.00;1.35;;;10.80;99.90;;;;;;5079388;28;20541;-64
2022/10/30 10:19:06;;;;;;;1.85;0.80;;;10.80;99.90;;;;;;5078043;28;20394;-64
2022/10/30 10:21:37;;;;;;;2.13;0.80;;;10.90;99.90;;;;;;5082953;28;20352;-65
2022/10/30 10:24:15;;;;;;;1.45;0.60;;;10.90;99.90;;;;;;5080820;28;20048;-67
2022/10/30 10:26:55;;;;;;;2.00;0.90;;;10.90;99.90;;;;;;5079807;28;20111;-66
2022/10/30 10:29:40;;;;;;;2.83;1.25;;;10.90;99.90;;;;;;5086314;28;20109;-64
2022/10/30 10:32:31;;;;;;;2.97;0.77;;;10.90;99.90;;;;;;5081408;28;20103;-68
2022/10/30 10:35:22;;;;;;;5.50;1.33;;;10.90;99.90;;;;;;5055831;28;20412;-64
2022/10/30 10:38:06;;;;;;;6.47;1.88;;;11.00;99.90;;;;;;5080885;28;20143;-64
2022/10/30 10:40:42;;;;;;;7.55;2.92;;;11.10;99.90;;;;;;5083209;28;20127;-65
2022/10/30 10:43:37;;;;;;;9.43;2.10;;;11.10;99.90;;;;;;5084247;28;20062;-64
2022/10/30 10:46:13;;;;;;;7.72;3.47;;;11.10;99.90;;;;;;5077956;28;20067;-64
2022/10/30 10:48:51;;;;;;;10.00;2.25;;;11.00;99.90;;;;;;5082518;28;20440;-63
2022/10/30 10:51:26;;;;;;;7.57;2.38;;;10.90;99.90;;;;;;5083021;28;20048;-65
2022/10/30 10:53:58;;;;;;;6.93;1.60;;;10.90;99.90;;;;;;5079984;28;20104;-64
2022/10/30 10:56:32;;;;;;;12.65;3.10;;;10.90;99.90;;;;;;5086400;28;20048;-66
2022/10/30 10:59:08;;;;;;;8.90;2.00;;;10.90;99.90;;;;;;5081686;28;20071;-66
2022/10/30 11:01:41;;;;;;;4.10;2.08;;;10.90;99.90;;;;;;5083277;28;20186;-65
2022/10/30 11:04:31;;;;;;;3.20;1.63;;;10.70;99.90;;;;;;5074265;28;20102;-69
2022/10/30 11:07:09;;;;;;;9.47;2.07;;;10.80;99.90;;;;;;5080637;28;20276;-70
2022/10/30 11:09:36;;;;;;;4.82;1.58;;;10.70;99.90;;;;;;5078593;28;20381;-68
2022/10/30 11:12:03;;;;;;;8.95;2.13;;;10.60;99.90;;;;;;5083593;28;20048;-67
2022/10/30 11:14:30;;;;;;;5.95;2.53;;;10.60;99.90;;;;;;5075761;28;20043;-67
2022/10/30 11:16:57;;;;;;;3.38;1.67;;;10.50;99.90;;;;;;5077866;28;20052;-64
2022/10/30 11:19:24;;;;;;;5.55;1.75;;;10.50;99.90;;;;;;5078634;28;20037;-70
2022/10/30 11:21:54;;;;;;;4.03;1.35;;;10.40;99.90;;;;;;5081257;28;20139;-65
2022/10/30 11:24:39;;;;;;;2.30;1.65;;;10.40;99.90;;;;;;5080720;28;20091;-68
2022/10/30 11:27:24;;;;;;;7.63;2.72;;;10.50;99.90;;;;;;5073388;28;20406;-64
2022/10/30 11:29:58;;;;;;;7.05;2.10;;;10.50;99.90;;;;;;5079886;28;20105;-65
2022/10/30 11:32:28;;;;;;;7.65;1.75;;;10.50;99.90;;;;;;5076749;28;20498;-70
2022/10/30 11:35:08;;;;;;;4.57;1.65;;;10.60;99.90;;;;;;5083656;28;20495;-65
2022/10/30 11:37:38;;;;;;;5.38;1.85;;;10.60;99.90;;;;;;5085823;28;20138;-69
2022/10/30 11:40:11;;;;;;;4.70;2.25;;;10.50;99.90;;;;;;5077630;28;20369;-66
2022/10/30 11:42:41;;;;;;;5.65;1.45;;;10.40;99.90;;;;;;5083794;28;20044;-66
2022/10/30 11:45:15;;;;;;;3.78;2.30;;;10.40;99.90;;;;;;5082015;28;20529;-65
2022/10/30 11:47:44;;;;;;;4.82;1.67;;;10.20;99.90;;;;;;5084868;28;20045;-65
2022/10/30 11:50:17;;;;;;;10.15;2.80;;;10.20;99.90;;;;;;5082432;28;20501;-65
2022/10/30 11:52:46;;;;;;;3.45;1.50;;;10.30;99.90;;;;;;5084923;28;20049;-65
2022/10/30 11:55:19;;;;;;;2.35;1.50;;;10.30;99.90;;;;;;5083482;28;20534;-70
2022/10/30 11:57:50;;;;;;;4.57;1.58;;;10.40;99.90;;;;;;5084326;28;20075;-64
2022/10/30 12:00:25;;;;;;;3.47;1.38;;;10.30;99.90;;;;;;5082438;28;20062;-65
2022/10/30 12:02:55;;;;;;;2.50;1.20;;;10.40;99.90;;;;;;5078505;28;20078;-67
2022/10/30 12:05:35;;;;;;;4.28;0.85;;;10.30;99.90;;;;;;5080637;28;20051;-65
2022/10/30 12:08:08;;;;;;;2.65;1.10;;;10.40;99.90;;;;;;5081296;28;20052;-70
2022/10/30 12:10:58;;;;;;;1.95;1.20;;;10.30;99.90;;;;;;5084321;28;20047;-66
2022/10/30 12:13:26;;;;;;;3.70;0.70;;;10.30;99.90;;;;;;5075854;28;20051;-67
2022/10/30 12:16:09;;;;;;;2.67;1.10;;;10.40;99.90;;;;;;5080097;28;20552;-71
2022/10/30 12:18:36;;;;;;;2.63;0.98;;;10.30;99.90;;;;;;5077055;28;20097;-67
2022/10/30 12:21:03;;;;;;;0.85;0.75;;;10.30;99.90;;;;;;5082969;28;20048;-64
2022/10/30 12:23:32;;;;;;;1.13;0.80;;;10.30;99.90;;;;;;5087039;28;20072;-65
2022/10/30 12:26:06;;;;;;;17.45;1.27;;;10.20;99.90;;;;;;5075152;28;20071;-68
2022/10/30 12:28:34;;;;;;;2.50;0.63;;;10.20;99.90;;;;;;5078686;28;20139;-64
2022/10/30 12:31:16;;;;;;;1.13;0.50;;;10.20;99.90;;;;;;5086405;28;20055;-65
2022/10/30 12:33:57;;;;;;;1.17;0.60;;;10.20;99.90;;;;;;5080160;28;20051;-66
2022/10/30 12:36:29;;;;;;;3.20;0.60;;;10.20;99.90;;;;;;5082113;28;20064;-67
2022/10/30 12:39:09;;;;;;;1.05;0.85;;;10.30;99.90;;;;;;5081775;28;20049;-67
2022/10/30 12:41:42;;;;;;;4.15;0.95;;;10.20;99.90;;;;;;5087954;28;20050;-74
2022/10/30 12:44:14;;;;;;;1.60;0.73;;;10.20;99.90;;;;;;5078655;28;20050;-67
2022/10/30 12:46:47;;;;;;;1.77;0.73;;;10.20;99.90;;;;;;5080491;28;20050;-64
2022/10/30 12:49:26;;;;;;;4.03;1.60;;;10.20;99.90;;;;;;5083277;28;20147;-64
2022/10/30 12:51:55;;;;;;;1.15;0.60;;;10.20;99.90;;;;;;5084177;28;20535;-65
2022/10/30 12:54:57;;;;;;;3.22;2.05;;;10.20;99.90;;;;;;5079231;28;20350;-69
2022/10/30 12:57:32;;;;;;;1.52;1.25;;;10.20;99.90;;;;;;5076286;28;20048;-73
2022/10/30 13:00:15;;;;;;;1.25;0.65;;;10.20;99.90;;;;;;5080779;28;20048;-64
2022/10/30 13:02:52;;;;;;;1.75;0.77;;;10.10;99.90;;;;;;5079907;28;20226;-64
2022/10/30 13:05:40;;;;;;;1.13;0.57;;;10.00;99.90;;;;;;5084990;28;20094;-66
2022/10/30 13:08:45;;;;;;;5.05;0.85;;;10.00;99.90;;;;;;5084221;28;20135;-64
2022/10/30 13:11:34;;;;;;;2.33;0.82;;;10.00;99.90;;;;;;5082088;28;20481;-70
2022/10/30 13:14:04;;;;;;;1.25;0.95;;;9.90;99.90;;;;;;5078459;28;20102;-66
2022/10/30 13:16:31;;;;;;;2.10;0.70;;;9.90;99.90;;;;;;5077120;28;20093;-64